Oktjabr'Skoe, Russia
Current Conditions -  °F | °C
As of 11:30 AM on Monday 24 Nov 2014 (Local Time) from USHH Reporting Station
Overcast Overcast  
Wind Chill: -16°   Ceiling: 8000
Heat Index:   Visibility: 6mi
Dew Point: -2°   Wind: 16mph
Humidity: 78%   Direction: 250°WSW
Pressure: 29.85"   Gusts: 22mph
Location:  62.45°N, 66.05°E
Report Text: USHH 240630Z 25007G10MPS 9999 SCT033 OVC080 M16/M19 Q1011 TEMPO1000 SN OVC004 RMK QFE755 24////50
Loading
Personal Weather Stations






























Interactive Weather Map New forecast layout! Learn more

10-Day Weather Forecast

Advertisements
Track Severe Weather on mobile